createdAt,value
2018-08-30T00:03:54.689Z,13.50
2018-08-30T00:07:58.878Z,13.50
2018-08-30T00:12:03.166Z,13.40
2018-08-30T00:16:07.437Z,13.40
2018-08-30T00:20:11.729Z,13.40
2018-08-30T00:24:15.977Z,13.30
2018-08-30T00:28:20.360Z,13.30
2018-08-30T00:32:24.780Z,13.30
2018-08-30T00:36:29.046Z,13.20
2018-08-30T00:40:33.233Z,13.20
2018-08-30T00:44:37.431Z,13.10
2018-08-30T00:48:41.685Z,13.10
2018-08-30T00:52:45.853Z,13.10
2018-08-30T00:56:50.293Z,13.10
2018-08-30T01:00:54.463Z,13.10
2018-08-30T01:04:58.700Z,13.00
2018-08-30T01:09:03.062Z,13.10
2018-08-30T01:13:07.369Z,13.00
2018-08-30T01:17:11.614Z,13.00
2018-08-30T01:21:16.108Z,12.90
2018-08-30T01:25:20.396Z,12.90
2018-08-30T01:29:24.857Z,12.90
2018-08-30T01:33:29.080Z,12.90
2018-08-30T01:37:33.537Z,12.80
2018-08-30T01:41:37.716Z,12.80
2018-08-30T01:45:41.924Z,12.80
2018-08-30T01:49:46.755Z,12.80
2018-08-30T01:53:50.989Z,12.70
2018-08-30T01:57:55.344Z,12.70
2018-08-30T02:01:59.652Z,12.70
2018-08-30T02:06:04.042Z,12.60
2018-08-30T02:10:08.312Z,12.60
2018-08-30T02:14:12.668Z,12.70
2018-08-30T02:18:16.863Z,12.70
2018-08-30T02:22:21.631Z,12.80
2018-08-30T02:26:25.948Z,12.90
2018-08-30T02:30:30.160Z,12.80
2018-08-30T02:34:34.413Z,12.70
2018-08-30T02:38:38.654Z,12.60
2018-08-30T02:42:42.923Z,12.50
2018-08-30T02:46:47.119Z,12.60
2018-08-30T02:50:51.405Z,12.60
2018-08-30T02:54:55.737Z,12.60
2018-08-30T02:58:59.911Z,12.70
2018-08-30T03:03:04.194Z,12.70
2018-08-30T03:07:08.425Z,12.70
2018-08-30T03:11:12.700Z,12.60
2018-08-30T03:15:17.144Z,12.60
2018-08-30T03:19:21.471Z,12.60
2018-08-30T03:23:25.651Z,12.70
2018-08-30T03:27:30.057Z,12.70
2018-08-30T03:31:34.247Z,12.60
2018-08-30T03:35:38.433Z,12.70
2018-08-30T03:39:42.714Z,12.60
2018-08-30T03:43:46.901Z,12.60
2018-08-30T03:47:51.129Z,12.50
2018-08-30T03:51:55.326Z,12.70
2018-08-30T03:55:59.565Z,12.60
2018-08-30T04:00:03.857Z,12.60
2018-08-30T04:04:08.500Z,12.50
2018-08-30T04:08:12.870Z,12.40
2018-08-30T04:12:17.193Z,12.40
2018-08-30T04:16:21.383Z,12.50
2018-08-30T04:20:30.776Z,12.40
2018-08-30T04:24:39.352Z,12.40
2018-08-30T04:28:48.678Z,12.50
2018-08-30T04:32:58.553Z,12.50
2018-08-30T04:37:09.911Z,12.50
2018-08-30T04:41:14.085Z,12.60
2018-08-30T04:45:18.329Z,12.70
2018-08-30T04:49:22.603Z,12.70
2018-08-30T04:53:26.768Z,12.70
2018-08-30T04:57:31.019Z,12.70
2018-08-30T05:01:36.451Z,12.70
2018-08-30T05:05:40.919Z,13.00
2018-08-30T05:09:46.638Z,13.00
2018-08-30T05:13:50.992Z,13.10
2018-08-30T05:17:56.419Z,13.20
2018-08-30T05:22:00.656Z,13.40
2018-08-30T05:26:04.889Z,13.60
2018-08-30T05:30:09.328Z,13.70
2018-08-30T05:34:13.553Z,13.90
2018-08-30T05:38:17.795Z,14.10
2018-08-30T05:42:22.662Z,14.30
2018-08-30T05:46:26.861Z,14.60
2018-08-30T05:50:31.103Z,14.80
2018-08-30T05:54:35.398Z,14.90
2018-08-30T05:58:39.596Z,15.20
2018-08-30T06:02:44.010Z,15.20
2018-08-30T06:06:48.194Z,15.20
2018-08-30T06:10:52.469Z,15.20
2018-08-30T06:14:57.379Z,15.30
2018-08-30T06:19:01.585Z,15.50
2018-08-30T06:23:05.821Z,15.50
2018-08-30T06:27:10.110Z,15.60
2018-08-30T06:31:14.390Z,15.70
2018-08-30T06:35:18.696Z,15.80
2018-08-30T06:39:22.926Z,16.00
2018-08-30T06:43:27.248Z,16.20
2018-08-30T06:47:31.481Z,16.40
2018-08-30T06:51:36.847Z,16.70
2018-08-30T06:55:41.236Z,16.90
2018-08-30T06:59:45.535Z,17.20
2018-08-30T07:03:49.997Z,17.50
2018-08-30T07:07:54.258Z,17.80
2018-08-30T07:11:58.674Z,18.00
2018-08-30T07:16:02.936Z,18.20
2018-08-30T07:20:07.396Z,18.50
2018-08-30T07:24:12.049Z,18.90
2018-08-30T07:28:16.357Z,19.30
2018-08-30T07:32:20.692Z,19.50
2018-08-30T07:36:24.975Z,19.70
2018-08-30T07:40:29.218Z,20.10
2018-08-30T07:44:33.437Z,20.30
2018-08-30T07:48:37.712Z,20.60
2018-08-30T07:52:42.162Z,20.80
2018-08-30T07:56:46.474Z,21.00
2018-08-30T08:00:50.712Z,21.30
2018-08-30T08:04:54.986Z,21.80
2018-08-30T08:08:59.151Z,22.10
2018-08-30T08:13:03.400Z,22.30
2018-08-30T08:17:07.716Z,22.70
2018-08-30T08:21:11.899Z,23.10
2018-08-30T08:25:16.336Z,23.30
2018-08-30T08:29:20.940Z,23.60
2018-08-30T08:33:25.274Z,23.80
2018-08-30T08:37:29.485Z,24.00
2018-08-30T08:41:33.787Z,24.20
2018-08-30T08:45:38.046Z,24.20
2018-08-30T08:49:42.435Z,23.80
2018-08-30T08:53:46.701Z,24.30
2018-08-30T08:57:51.045Z,25.80
2018-08-30T09:01:55.939Z,26.20
2018-08-30T09:06:00.292Z,27.50
2018-08-30T09:10:04.593Z,27.00
2018-08-30T09:14:09.089Z,26.60
2018-08-30T09:18:13.318Z,27.20
2018-08-30T09:22:17.661Z,27.10
2018-08-30T09:26:21.972Z,26.70
2018-08-30T09:30:26.140Z,27.00
2018-08-30T09:34:30.469Z,27.00
2018-08-30T09:38:34.858Z,27.10
2018-08-30T09:42:39.261Z,28.10
2018-08-30T09:46:43.440Z,28.10
2018-08-30T09:50:47.768Z,27.70
2018-08-30T09:54:51.940Z,29.00
2018-08-30T09:58:56.827Z,29.00
2018-08-30T10:03:01.103Z,29.90
2018-08-30T10:07:05.495Z,29.80
2018-08-30T10:11:10.772Z,29.60
2018-08-30T10:15:15.118Z,29.50
2018-08-30T10:19:19.408Z,30.40
2018-08-30T10:23:23.658Z,31.10
2018-08-30T10:27:28.101Z,30.50
2018-08-30T10:31:32.518Z,29.30
2018-08-30T10:35:36.729Z,28.90
2018-08-30T10:39:41.080Z,28.30
2018-08-30T10:43:45.300Z,28.30
2018-08-30T10:47:49.817Z,28.60
2018-08-30T10:51:54.055Z,29.40
2018-08-30T10:55:58.306Z,29.70
2018-08-30T11:00:02.669Z,29.30
2018-08-30T11:04:07.198Z,28.60
2018-08-30T11:08:11.387Z,28.60
2018-08-30T11:12:15.749Z,28.30
2018-08-30T11:16:19.929Z,27.60
2018-08-30T11:20:24.253Z,27.80
2018-08-30T11:24:28.624Z,28.70
2018-08-30T11:28:32.951Z,29.20
2018-08-30T11:32:37.139Z,28.70
2018-08-30T11:36:41.546Z,29.70
2018-08-30T11:40:45.843Z,29.80
2018-08-30T11:44:50.034Z,29.30
2018-08-30T11:48:54.394Z,30.10
2018-08-30T11:52:58.664Z,30.40
2018-08-30T11:57:03.047Z,31.10
2018-08-30T12:01:07.442Z,31.40
2018-08-30T12:05:11.731Z,31.40
2018-08-30T12:09:16.091Z,31.60
2018-08-30T12:13:20.764Z,31.80
2018-08-30T12:17:25.267Z,31.10
2018-08-30T12:21:30.038Z,30.80
2018-08-30T12:25:34.466Z,30.10
2018-08-30T12:29:39.070Z,30.10
2018-08-30T12:33:43.934Z,30.70
2018-08-30T12:37:48.502Z,31.00
2018-08-30T12:41:52.744Z,30.30
2018-08-30T12:45:58.713Z,31.50
2018-08-30T12:50:08.554Z,32.40
2018-08-30T12:54:18.617Z,32.90
2018-08-30T12:58:29.073Z,31.70
2018-08-30T13:02:38.195Z,30.20
2018-08-30T13:06:49.556Z,29.70
2018-08-30T13:10:56.678Z,29.40
2018-08-30T13:15:02.243Z,29.20
2018-08-30T13:19:07.458Z,29.20
2018-08-30T13:23:13.444Z,29.10
2018-08-30T13:27:20.477Z,29.50
2018-08-30T13:31:25.531Z,29.20
2018-08-30T13:35:30.023Z,29.10
2018-08-30T13:39:36.155Z,29.20
2018-08-30T13:43:42.277Z,29.00
2018-08-30T13:47:46.981Z,29.20
2018-08-30T13:51:51.759Z,29.50
2018-08-30T13:55:56.133Z,31.50
2018-08-30T14:00:00.690Z,32.90
2018-08-30T14:04:04.899Z,31.50
2018-08-30T14:08:09.136Z,31.50
2018-08-30T14:12:13.265Z,30.70
2018-08-30T14:16:17.265Z,31.20
2018-08-30T14:20:21.487Z,33.30
2018-08-30T14:24:25.864Z,34.10
2018-08-30T14:28:30.178Z,33.90
2018-08-30T14:32:39.209Z,32.20
2018-08-30T14:36:48.960Z,31.50
2018-08-30T14:40:57.869Z,31.40
2018-08-30T14:45:07.659Z,31.00
2018-08-30T14:49:17.955Z,31.40
2018-08-30T14:53:30.365Z,31.70
2018-08-30T14:57:39.121Z,30.00
2018-08-30T15:01:50.785Z,28.70
2018-08-30T15:06:01.013Z,27.80
2018-08-30T15:10:10.234Z,27.60
2018-08-30T15:14:20.388Z,27.60
2018-08-30T15:18:30.659Z,28.70
2018-08-30T15:22:40.782Z,28.50
2018-08-30T15:26:51.302Z,28.40
2018-08-30T15:30:57.571Z,28.10
2018-08-30T15:35:01.949Z,27.40
2018-08-30T15:39:12.719Z,27.20
2018-08-30T15:43:21.235Z,26.80
2018-08-30T15:47:31.522Z,26.20
2018-08-30T15:51:41.472Z,25.40
2018-08-30T15:55:51.253Z,24.90
2018-08-30T16:00:01.961Z,24.50
2018-08-30T16:04:10.935Z,23.90
2018-08-30T16:08:20.140Z,23.30
2018-08-30T16:12:30.135Z,22.90
2018-08-30T16:16:41.682Z,22.60
2018-08-30T16:20:52.049Z,22.30
2018-08-30T16:25:04.843Z,22.20
2018-08-30T16:29:13.634Z,21.80
2018-08-30T16:33:22.675Z,21.60
2018-08-30T16:37:33.274Z,21.40
2018-08-30T16:41:42.171Z,21.00
2018-08-30T16:45:53.480Z,20.80
2018-08-30T16:50:02.627Z,20.70
2018-08-30T16:54:12.216Z,20.60
2018-08-30T16:58:20.518Z,20.40
2018-08-30T17:02:30.036Z,20.30
2018-08-30T17:06:39.716Z,20.20
2018-08-30T17:10:50.400Z,20.20
2018-08-30T17:15:00.313Z,20.00
2018-08-30T17:19:18.224Z,19.80
2018-08-30T17:23:28.362Z,19.70
2018-08-30T17:27:40.216Z,19.30
2018-08-30T17:31:51.316Z,18.90
2018-08-30T17:36:01.241Z,18.50
2018-08-30T17:40:10.651Z,18.30
2018-08-30T17:44:25.043Z,18.10
2018-08-30T17:48:34.903Z,18.10
2018-08-30T17:52:45.041Z,18.00
2018-08-30T17:56:55.569Z,17.40
2018-08-30T18:01:05.473Z,17.10
2018-08-30T18:05:16.315Z,16.80
2018-08-30T18:09:22.166Z,16.50
2018-08-30T18:13:26.593Z,16.30
2018-08-30T18:17:30.890Z,16.20
2018-08-30T18:21:35.438Z,16.00
2018-08-30T18:25:39.620Z,16.00
2018-08-30T18:29:44.151Z,16.00
2018-08-30T18:33:48.488Z,15.80
2018-08-30T18:37:52.732Z,15.60
2018-08-30T18:41:56.900Z,15.60
2018-08-30T18:46:01.199Z,15.50
2018-08-30T18:50:05.521Z,15.50
2018-08-30T18:54:09.720Z,15.60
2018-08-30T18:58:14.465Z,15.50
2018-08-30T19:02:18.758Z,15.60
2018-08-30T19:06:23.331Z,15.50
2018-08-30T19:10:27.828Z,15.50
2018-08-30T19:14:32.653Z,15.70
2018-08-30T19:18:42.290Z,15.60
2018-08-30T19:22:46.823Z,15.40
2018-08-30T19:26:51.688Z,15.50
2018-08-30T19:30:56.082Z,15.50
2018-08-30T19:36:04.483Z,15.60
2018-08-30T19:40:13.041Z,15.50
2018-08-30T19:44:20.649Z,15.60
2018-08-30T19:48:25.261Z,15.40
2018-08-30T19:52:29.619Z,15.40
2018-08-30T19:56:33.920Z,15.40
2018-08-30T20:00:38.089Z,15.30
2018-08-30T20:04:42.461Z,15.30
2018-08-30T20:08:46.651Z,15.40
2018-08-30T20:12:50.959Z,15.30
2018-08-30T20:16:55.317Z,15.20
2018-08-30T20:20:59.507Z,15.20
2018-08-30T20:25:03.967Z,15.20
2018-08-30T20:29:08.134Z,15.30
2018-08-30T20:33:12.411Z,15.30
2018-08-30T20:37:16.590Z,15.10
2018-08-30T20:41:20.905Z,15.20
2018-08-30T20:45:25.147Z,15.20
2018-08-30T20:49:29.388Z,15.30
2018-08-30T20:53:33.705Z,15.30
2018-08-30T20:57:37.946Z,15.30
2018-08-30T21:01:42.150Z,15.40
2018-08-30T21:05:46.344Z,15.30
2018-08-30T21:09:50.684Z,15.30
2018-08-30T21:13:55.000Z,15.20
2018-08-30T21:17:59.233Z,15.30
2018-08-30T21:22:03.415Z,15.40
2018-08-30T21:26:08.487Z,15.30
2018-08-30T21:30:12.649Z,15.30
2018-08-30T21:34:17.122Z,15.30
2018-08-30T21:38:21.312Z,15.40
2018-08-30T21:42:26.506Z,15.40
2018-08-30T21:46:30.787Z,15.40
2018-08-30T21:50:35.191Z,15.50
2018-08-30T21:54:39.388Z,15.40
2018-08-30T21:58:43.679Z,15.60
2018-08-30T22:02:47.912Z,15.60
2018-08-30T22:06:54.841Z,15.60
2018-08-30T22:10:59.078Z,15.50
2018-08-30T22:15:03.530Z,15.40
2018-08-30T22:19:07.724Z,15.40
2018-08-30T22:23:12.069Z,15.40
2018-08-30T22:27:16.457Z,15.30
2018-08-30T22:31:20.704Z,15.30
2018-08-30T22:35:25.168Z,15.20
2018-08-30T22:39:29.345Z,15.20
2018-08-30T22:43:33.707Z,15.20
2018-08-30T22:47:37.897Z,15.20
2018-08-30T22:51:42.177Z,15.40
2018-08-30T22:55:46.392Z,15.20
2018-08-30T22:59:50.747Z,15.20
2018-08-30T23:03:54.981Z,15.10
2018-08-30T23:07:59.278Z,15.20
2018-08-30T23:12:03.584Z,15.20
2018-08-30T23:16:08.179Z,15.20
2018-08-30T23:20:12.405Z,15.30
2018-08-30T23:24:16.616Z,15.40
2018-08-30T23:28:20.916Z,15.40
2018-08-30T23:32:25.109Z,15.50
2018-08-30T23:36:29.436Z,15.60
2018-08-30T23:40:33.633Z,15.60
2018-08-30T23:44:37.911Z,15.40
2018-08-30T23:48:42.089Z,15.40
2018-08-30T23:52:46.433Z,15.50
2018-08-30T23:56:50.784Z,15.50
